Voo Virtual
Olá, seja bem-vindo(a) ao Voo Virtual. Caso ainda não seja membro da nossa comunidade, registre-se, para que possa participar ativamente e ter acesso a todos os conteúdos do site.
Por favor leia as regras do fórum aqui antes de postar, para evitar advertências e suspensão.


[Portugal] Avião da JET2 bate com cauda na pista ao aterrar na Madeira Gse_multipart13851

[Portugal] Avião da JET2 bate com cauda na pista ao aterrar na Madeira

3 participantes

Ir para baixo

[Portugal] Avião da JET2 bate com cauda na pista ao aterrar na Madeira Empty [Portugal] Avião da JET2 bate com cauda na pista ao aterrar na Madeira

Mensagem por Amilckar Ter 18 Fev 2014, 05:25

Avião da JET2 bate com cauda na pista ao aterrar na Madeira
Um avião da companhia aérea JET2 bateu com a cauda na pista do Aeroporto da Madeira durante a aterragem, um incidente que não provocou danos pessoais, informou a Aeroportos e Navegação Aérea da Madeira (ANAM).




[Portugal] Avião da JET2 bate com cauda na pista ao aterrar na Madeira 6202190

Lusa



Segundo a mesma nota, o incidente ocorreu pelas 12:30 e a aeronave, que transportava 176 passageiros, "sofreu um ligeiro dano na cauda".


O voo era proveniente de Leeds (Inglaterra) e "não foram registados quaisquer danos pessoais", concluiu.
O aeroporto da Madeira registou hoje alguns condicionamentos no movimento de aterragens e descolagens devido aos "ventos cruzados", situação que afetou seis ligações, tendo quatro aviões divergido para o Porto Santo e dois para Tenerife, nas Canárias.

Fonte: Noticiasaominuto

_________________
Carlos Amilckar
[Portugal] Avião da JET2 bate com cauda na pista ao aterrar na Madeira Amilckar%252FVV125
Amilckar
Amilckar
Colaborador - Notícias de aviação
Colaborador - Notícias de aviação

Masculino
Inscrito em : 12/10/2009
Mensagens : 11036
Reputação : 512
Idade : 57
Simulador preferido : P3D V3
Emprego/lazer : Militar aposentado
Nacionalidade : Brasil

Ir para o topo Ir para baixo

[Portugal] Avião da JET2 bate com cauda na pista ao aterrar na Madeira Empty Re: [Portugal] Avião da JET2 bate com cauda na pista ao aterrar na Madeira

Mensagem por Duley Ter 18 Fev 2014, 07:20

Segundo Avherald, METAR na hora não facilitava em nada:
LPMA 171230Z 33013G24KT 270V020 9999 SCT016 19/10 Q1016 RS16003KT 0534017G30KT 2334015G26KT
LPMA 171200Z VRB11G22KT 9999 SCT016 17/12 Q1016 RS18005KT 0525004KT 2333013KT


_________________
CPU AMD Ryzen 9 5900X | MB Asus ROG Strix X570-E Gaming | RAM 64Gb (4x16Gb) G.Skill DDR4 3600 | GPU EVGA RTX 3080 Ti FTW3 Ultra Hybrid | SSD NVMe Sabrent Rocket 1Tb Gen 4 + SSD Samsung 860 Evo 1Tb SATA3 | PSU Corsair RM850x 850W | WaterCooler AIO Corsair H115i Elite Capellix LCD upgrade | Monitor Asus 27" 1440p 165Hz | TrackIR 5
Duley
Duley
Major-Brigadeiro
Major-Brigadeiro

Masculino
Inscrito em : 14/05/2008
Mensagens : 3815
Reputação : 293
Idade : 36
Simulador preferido : MSFS
Emprego/lazer : Bombardier
Nacionalidade : Brasil

Ir para o topo Ir para baixo

[Portugal] Avião da JET2 bate com cauda na pista ao aterrar na Madeira Empty Re: [Portugal] Avião da JET2 bate com cauda na pista ao aterrar na Madeira

Mensagem por Braconi Ter 18 Fev 2014, 08:43

Duley escreveu:Segundo Avherald, METAR na hora não facilitava em nada:
LPMA 171230Z 33013G24KT 270V020 9999 SCT016 19/10 Q1016 RS16003KT 0534017G30KT 2334015G26KT
LPMA 171200Z VRB11G22KT 9999 SCT016 17/12 Q1016 RS18005KT 0525004KT 2333013KT


Na vida real estas configurações de weather setam o jogo para o nível ultra hard.
Braconi
Braconi
Coronel
Coronel

Masculino
Inscrito em : 15/12/2011
Mensagens : 1072
Reputação : 119
Idade : 39
Simulador preferido : MSFS
Nacionalidade : Brasil

Ir para o topo Ir para baixo

[Portugal] Avião da JET2 bate com cauda na pista ao aterrar na Madeira Empty Re: [Portugal] Avião da JET2 bate com cauda na pista ao aterrar na Madeira

Mensagem por Duley Qua 19 Fev 2014, 09:13

Pior de tudo é vento variável de 11 e rajada de 22... cada hora vem de um canto. As correções do piloto hora são adequadas ao vento, hora não.

_________________
CPU AMD Ryzen 9 5900X | MB Asus ROG Strix X570-E Gaming | RAM 64Gb (4x16Gb) G.Skill DDR4 3600 | GPU EVGA RTX 3080 Ti FTW3 Ultra Hybrid | SSD NVMe Sabrent Rocket 1Tb Gen 4 + SSD Samsung 860 Evo 1Tb SATA3 | PSU Corsair RM850x 850W | WaterCooler AIO Corsair H115i Elite Capellix LCD upgrade | Monitor Asus 27" 1440p 165Hz | TrackIR 5
Duley
Duley
Major-Brigadeiro
Major-Brigadeiro

Masculino
Inscrito em : 14/05/2008
Mensagens : 3815
Reputação : 293
Idade : 36
Simulador preferido : MSFS
Emprego/lazer : Bombardier
Nacionalidade : Brasil

Ir para o topo Ir para baixo

[Portugal] Avião da JET2 bate com cauda na pista ao aterrar na Madeira Empty Re: [Portugal] Avião da JET2 bate com cauda na pista ao aterrar na Madeira

Mensagem por Conteúdo patrocinado


Conteúdo patrocinado


Ir para o topo Ir para baixo

Ir para o topo


 
Permissões neste sub-fórum
Não podes responder a tópicos